02:03 Laufen Moetz - Schotter - Telfs - Fiecht - Locherboden - Moetz
Ort Moetz Datum 16.05.2015 14:51:59
Kategorie Trail
Distanz 25,07 Kilometer Steigung 376,0 Meter Gefälle -342,0 Meter
Gesamt Zeit 02:04:41 Aktiv 02:02:28 Pause 00:02:13
Durchs. Tempo 00:04:53 min/km Tempo max. 00:03:43 min/km Tempo min. 00:08:31 min/km
Kalorien 0 Durchs. HF 138 BPM HF max. 156 BPM
Wetter 20 °C PartClouds Min/Max: 19,0 °C/21,0 °C; Druck: 1021,3 mbar; Rel. Feuchte: 59,3%; Taupunkt: 10,9 °C; Windgeschwindigkeit: 6,0 km/h; Niederschlag: 0,0mm
Ausrüstung Mammut - MTR 201 Dyneema Tech Low Men
Nogler - Einlagen NEU 1
Sigvaris - Strumpf weiss 43
Notiz Moetz - Schotter - Telfs - Fiecht - Locherboden - Moetz ... tw. noch etwas matschig, warm, leicht windig, locker ... garmin connect
Splits
Distanz (km) Gesamt Zeit Split Zeit Split Tempo Split Tempo Höhenprofil (m)
1,00 00:04:44 00:04:44 00:04:45 12,6 -9,76
2,00 00:09:18 00:04:33 00:04:34 13,2 -0,81
3,00 00:13:46 00:04:28 00:04:29 13,4 -4,01
4,00 00:18:21 00:04:34 00:04:35 13,1 -3,52
5,00 00:22:52 00:04:30 00:04:31 13,3 -2,64
6,00 00:27:24 00:04:32 00:04:32 13,2 -2,13
7,00 00:31:55 00:04:31 00:04:31 13,3 -2,77
8,00 00:36:27 00:04:31 00:04:31 13,3 -1,89
9,00 00:40:55 00:04:28 00:04:28 13,4 3,11
10,00 00:45:24 00:04:29 00:04:29 13,4 -1,71
11,00 00:49:57 00:04:32 00:04:33 13,2 -2,65
12,00 00:54:32 00:04:35 00:04:35 13,1 -1,40
13,00 00:59:04 00:04:32 00:04:33 13,2 1,10
14,00 01:04:39 00:05:34 00:05:35 10,7 57,89
15,00 01:10:20 00:05:40 00:05:40 10,6 45,28
16,00 01:15:36 00:05:16 00:05:16 11,4 26,47
17,00 01:21:17 00:05:41 00:05:42 10,5 53,74
18,00 01:26:42 00:05:24 00:05:25 11,1 35,09
19,00 01:31:45 00:05:02 00:05:02 11,9 -2,54
20,00 01:37:23 00:05:38 00:05:39 10,6 34,19
21,00 01:41:38 00:04:14 00:04:15 14,1 -74,30
22,00 01:46:48 00:05:09 00:05:10 11,6 18,73
23,00 01:51:55 00:05:07 00:05:07 11,7 -3,45
24,00 01:57:00 00:05:04 00:05:05 11,8 -26,94
25,00 02:01:34 00:04:34 00:04:34 13,1 -126,99
25,21 02:02:31 00:00:56 00:04:30 13,4 -4,89